Time;durP1;ratioP1;P1;durP2;ratioP2;P2;SDS_P1;SDS_P2;PMS_P1;PMS_P2;Temp;Humidity;BMP_temperature;BMP_pressure;BME280_temperature;BME280_humidity;BME280_pressure;Samples;Min_cycle;Max_cycle;Signal;HPM_P1;HPM_P2
2022/09/22 00:00:55;;;;;;;0.57;0.57;;;;;;;;;;5026923;28;20500;-75
2022/09/22 00:03:21;;;;;;;0.10;0.10;;;;;;;;;;5061121;28;20075;-75
2022/09/22 00:05:47;;;;;;;0.10;0.10;;;;;;;;;;5023329;28;20057;-78
2022/09/22 00:08:13;;;;;;;0.10;0.10;;;;;;;;;;5025084;28;20383;-76
2022/09/22 00:10:39;;;;;;;0.10;0.10;;;;;;;;;;5064908;28;20487;-76
2022/09/22 00:13:05;;;;;;;0.10;0.10;;;;;;;;;;5013561;28;20050;-76
2022/09/22 00:15:31;;;;;;;0.28;0.28;;;;;;;;;;5064193;28;20458;-75
2022/09/22 00:17:57;;;;;;;0.40;0.40;;;;;;;;;;5038548;28;20045;-76
2022/09/22 00:20:23;;;;;;;0.10;0.10;;;;;;;;;;5055206;28;20076;-77
2022/09/22 00:22:53;;;;;;;0.10;0.10;;;;;;;;;;5016340;28;20048;-76
2022/09/22 00:25:19;;;;;;;0.10;0.10;;;;;;;;;;5018429;28;20049;-77
2022/09/22 00:27:45;;;;;;;0.10;0.10;;;;;;;;;;5013587;28;20393;-75
2022/09/22 00:30:12;;;;;;;0.90;0.90;;;;;;;;;;5023499;28;20045;-78
2022/09/22 00:32:38;;;;;;;0.10;0.10;;;;;;;;;;5046146;28;20053;-77
2022/09/22 00:35:04;;;;;;;0.10;0.10;;;;;;;;;;5046453;28;20175;-76
2022/09/22 00:37:31;;;;;;;0.10;0.10;;;;;;;;;;5028678;28;20146;-76
2022/09/22 00:39:57;;;;;;;0.10;0.10;;;;;;;;;;5062623;28;20060;-76
2022/09/22 00:42:24;;;;;;;0.10;0.10;;;;;;;;;;5032722;28;20049;-76
2022/09/22 00:44:51;;;;;;;0.10;0.10;;;;;;;;;;5024116;28;20053;-75
2022/09/22 00:47:32;;;;;;;0.30;0.30;;;;;;;;;;5029546;28;20076;-76
2022/09/22 00:50:13;;;;;;;0.10;0.10;;;;;;;;;;5027815;28;20045;-76
2022/09/22 00:52:57;;;;;;;0.10;0.10;;;;;;;;;;5062417;28;20049;-77
2022/09/22 00:55:27;;;;;;;0.20;0.20;;;;;;;;;;5064959;28;20049;-76
2022/09/22 00:57:54;;;;;;;0.10;0.10;;;;;;;;;;5064838;28;20550;-76
2022/09/22 01:00:20;;;;;;;0.10;0.10;;;;;;;;;;5057200;28;20046;-75
2022/09/22 01:02:48;;;;;;;0.10;0.10;;;;;;;;;;5054832;28;20055;-75
2022/09/22 01:05:14;;;;;;;0.10;0.10;;;;;;;;;;5028067;28;20052;-79
2022/09/22 01:07:41;;;;;;;0.10;0.10;;;;;;;;;;5062781;28;20053;-76
2022/09/22 01:10:08;;;;;;;0.10;0.10;;;;;;;;;;5021088;28;20084;-76
2022/09/22 01:12:35;;;;;;;0.00;0.00;;;;;;;;;;5053307;28;20448;-75
2022/09/22 01:15:23;;;;;;;0.10;0.10;;;;;;;;;;5050160;28;20496;-76
2022/09/22 01:17:49;;;;;;;0.10;0.10;;;;;;;;;;5042636;28;20444;-75
2022/09/22 01:20:40;;;;;;;0.10;0.10;;;;;;;;;;5053027;28;20446;-78
2022/09/22 01:23:24;;;;;;;0.10;0.10;;;;;;;;;;5057413;28;20948;-76
2022/09/22 01:26:09;;;;;;;0.00;0.00;;;;;;;;;;5055108;28;20522;-75
2022/09/22 01:28:54;;;;;;;0.00;0.00;;;;;;;;;;5049711;28;21210;-78
2022/09/22 01:31:47;;;;;;;0.20;0.20;;;;;;;;;;5053104;28;20465;-76
2022/09/22 01:34:22;;;;;;;0.00;0.00;;;;;;;;;;5019545;28;20529;-74
2022/09/22 01:36:48;;;;;;;0.03;0.03;;;;;;;;;;5025541;28;20438;-74
2022/09/22 01:39:34;;;;;;;0.03;0.03;;;;;;;;;;5020131;28;20443;-75
2022/09/22 01:42:10;;;;;;;0.08;0.08;;;;;;;;;;5030337;28;20429;-74
2022/09/22 01:44:49;;;;;;;0.00;0.00;;;;;;;;;;5055887;28;20518;-75
2022/09/22 01:47:18;;;;;;;0.10;0.10;;;;;;;;;;5063946;28;20452;-74
2022/09/22 01:49:52;;;;;;;0.00;0.00;;;;;;;;;;5033037;28;20433;-74
2022/09/22 01:52:20;;;;;;;0.00;0.00;;;;;;;;;;5048479;28;20429;-75
2022/09/22 01:54:51;;;;;;;0.05;0.05;;;;;;;;;;5045002;28;20483;-72
2022/09/22 01:57:41;;;;;;;0.10;0.10;;;;;;;;;;5035266;28;20982;-72
2022/09/22 02:00:08;;;;;;;0.10;0.10;;;;;;;;;;5026774;28;20781;-72
2022/09/22 02:02:37;;;;;;;0.10;0.10;;;;;;;;;;5049030;28;20485;-72
2022/09/22 02:05:05;;;;;;;0.10;0.10;;;;;;;;;;5034347;28;20525;-72
2022/09/22 02:07:36;;;;;;;0.00;0.00;;;;;;;;;;5050108;28;20846;-72
2022/09/22 02:10:05;;;;;;;0.00;0.00;;;;;;;;;;5052534;28;20545;-72
2022/09/22 02:12:31;;;;;;;0.40;0.40;;;;;;;;;;5051379;28;20479;-72
2022/09/22 02:14:57;;;;;;;0.10;0.10;;;;;;;;;;5050609;28;20448;-72
2022/09/22 02:17:23;;;;;;;0.00;0.00;;;;;;;;;;5041794;28;20430;-72
2022/09/22 02:19:51;;;;;;;0.10;0.10;;;;;;;;;;5061520;28;20431;-72
2022/09/22 02:22:17;;;;;;;0.00;0.00;;;;;;;;;;5048620;28;20425;-72
2022/09/22 02:24:44;;;;;;;0.30;0.30;;;;;;;;;;5050889;28;20773;-72
2022/09/22 02:27:13;;;;;;;0.10;0.10;;;;;;;;;;5057344;28;20788;-72
2022/09/22 02:29:44;;;;;;;0.00;0.00;;;;;;;;;;5046272;28;20770;-73
2022/09/22 02:32:12;;;;;;;0.10;0.10;;;;;;;;;;5039771;28;20473;-73
2022/09/22 02:34:39;;;;;;;0.10;0.10;;;;;;;;;;5033526;28;20529;-72
2022/09/22 02:37:16;;;;;;;0.00;0.00;;;;;;;;;;5027303;28;20432;-72
2022/09/22 02:39:47;;;;;;;0.00;0.00;;;;;;;;;;5045359;28;20993;-72
2022/09/22 02:42:13;;;;;;;0.00;0.00;;;;;;;;;;5051083;28;20465;-73
2022/09/22 02:44:39;;;;;;;0.10;0.10;;;;;;;;;;5048167;28;20469;-74
2022/09/22 02:47:19;;;;;;;0.00;0.00;;;;;;;;;;5033605;28;20423;-72
2022/09/22 02:49:45;;;;;;;0.10;0.10;;;;;;;;;;5064732;28;20484;-72
2022/09/22 02:52:12;;;;;;;0.00;0.00;;;;;;;;;;5019512;28;20430;-72
2022/09/22 02:54:38;;;;;;;0.10;0.10;;;;;;;;;;5049664;28;20423;-72
2022/09/22 02:57:05;;;;;;;0.00;0.00;;;;;;;;;;5049886;28;20490;-72
2022/09/22 02:59:31;;;;;;;0.00;0.00;;;;;;;;;;5054702;28;20556;-72
2022/09/22 03:01:57;;;;;;;0.00;0.00;;;;;;;;;;5022179;28;20427;-72
2022/09/22 03:04:23;;;;;;;0.10;0.10;;;;;;;;;;5037871;28;20421;-73
2022/09/22 03:06:49;;;;;;;0.00;0.00;;;;;;;;;;5026446;28;20423;-72
2022/09/22 03:09:16;;;;;;;0.20;0.10;;;;;;;;;;5040683;28;20425;-72
2022/09/22 03:11:43;;;;;;;0.00;0.00;;;;;;;;;;5067168;28;20710;-72
2022/09/22 03:14:09;;;;;;;0.00;0.00;;;;;;;;;;5041804;28;20904;-72
2022/09/22 03:16:35;;;;;;;0.10;0.10;;;;;;;;;;5030448;28;20768;-72
2022/09/22 03:19:01;;;;;;;0.10;0.10;;;;;;;;;;5047321;28;20916;-72
2022/09/22 03:21:27;;;;;;;0.10;0.10;;;;;;;;;;5051727;28;20428;-73
2022/09/22 03:23:53;;;;;;;0.10;0.10;;;;;;;;;;5059731;28;20506;-73
2022/09/22 03:26:19;;;;;;;0.10;0.10;;;;;;;;;;5055679;28;20480;-73
2022/09/22 03:28:45;;;;;;;0.10;0.10;;;;;;;;;;5011396;28;20509;-72
2022/09/22 03:31:12;;;;;;;0.00;0.00;;;;;;;;;;5041113;28;20419;-73
2022/09/22 03:33:38;;;;;;;0.00;0.00;;;;;;;;;;5051209;28;20465;-72
2022/09/22 03:36:04;;;;;;;0.10;0.10;;;;;;;;;;5038727;28;20452;-72
2022/09/22 03:38:30;;;;;;;0.90;0.50;;;;;;;;;;5060624;28;20435;-73
2022/09/22 03:40:57;;;;;;;0.10;0.10;;;;;;;;;;5032968;28;20497;-72
2022/09/22 03:43:24;;;;;;;0.10;0.10;;;;;;;;;;5018304;28;20433;-72
2022/09/22 03:46:00;;;;;;;0.03;0.03;;;;;;;;;;5038969;28;20429;-72
2022/09/22 03:48:28;;;;;;;0.10;0.10;;;;;;;;;;5030411;28;20552;-74
2022/09/22 03:50:54;;;;;;;0.00;0.00;;;;;;;;;;5057719;28;20816;-72
2022/09/22 03:53:20;;;;;;;0.10;0.10;;;;;;;;;;5039096;28;20479;-72
2022/09/22 03:55:46;;;;;;;0.10;0.10;;;;;;;;;;5041710;28;20425;-72
2022/09/22 03:58:12;;;;;;;0.10;0.10;;;;;;;;;;5027107;28;20423;-72
2022/09/22 04:00:38;;;;;;;0.30;0.30;;;;;;;;;;5035621;28;20462;-72
2022/09/22 04:03:04;;;;;;;0.10;0.10;;;;;;;;;;5037755;28;20500;-73
2022/09/22 04:05:31;;;;;;;0.00;0.00;;;;;;;;;;5035308;28;20469;-72
2022/09/22 04:07:57;;;;;;;0.10;0.10;;;;;;;;;;5038323;28;20417;-72
2022/09/22 04:10:23;;;;;;;0.00;0.00;;;;;;;;;;5050823;28;20489;-72
2022/09/22 04:12:49;;;;;;;0.10;0.10;;;;;;;;;;5049087;28;20435;-72
2022/09/22 04:15:15;;;;;;;0.10;0.10;;;;;;;;;;5015008;28;20549;-72
2022/09/22 04:17:41;;;;;;;0.00;0.00;;;;;;;;;;5035436;28;20429;-72
2022/09/22 04:20:10;;;;;;;0.10;0.10;;;;;;;;;;5018961;28;20517;-72
2022/09/22 04:22:36;;;;;;;0.00;0.00;;;;;;;;;;5034226;28;20425;-72
2022/09/22 04:25:02;;;;;;;0.10;0.10;;;;;;;;;;5049258;28;20444;-73
2022/09/22 04:27:28;;;;;;;0.00;0.00;;;;;;;;;;5048142;28;20423;-72
2022/09/22 04:29:54;;;;;;;2.10;0.50;;;;;;;;;;5046310;28;20425;-72
2022/09/22 04:32:20;;;;;;;0.00;0.00;;;;;;;;;;5032728;28;20509;-72
2022/09/22 04:34:47;;;;;;;0.15;0.15;;;;;;;;;;5045734;28;20449;-72
2022/09/22 04:37:13;;;;;;;0.20;0.20;;;;;;;;;;5031491;28;20434;-74
2022/09/22 04:39:40;;;;;;;0.00;0.00;;;;;;;;;;5049751;28;20432;-72
2022/09/22 04:42:07;;;;;;;0.10;0.10;;;;;;;;;;5036528;28;20860;-72
2022/09/22 04:44:33;;;;;;;0.10;0.10;;;;;;;;;;5038520;28;20510;-72
2022/09/22 04:46:59;;;;;;;0.10;0.10;;;;;;;;;;5035690;28;20417;-75
2022/09/22 04:49:26;;;;;;;0.10;0.10;;;;;;;;;;5060218;28;20458;-72
2022/09/22 04:51:52;;;;;;;0.10;0.10;;;;;;;;;;5013374;28;20453;-72
2022/09/22 04:54:18;;;;;;;0.10;0.10;;;;;;;;;;5034784;28;20422;-72
2022/09/22 04:56:44;;;;;;;0.10;0.10;;;;;;;;;;5036892;28;20426;-72
2022/09/22 04:59:10;;;;;;;0.10;0.10;;;;;;;;;;5034466;28;20471;-72
2022/09/22 05:01:37;;;;;;;0.00;0.00;;;;;;;;;;5030981;28;20751;-72
2022/09/22 05:04:03;;;;;;;0.20;0.20;;;;;;;;;;5039092;28;20435;-71
2022/09/22 05:06:30;;;;;;;0.10;0.10;;;;;;;;;;5034241;28;20429;-72
2022/09/22 05:08:56;;;;;;;0.20;0.20;;;;;;;;;;5050267;28;20426;-72
2022/09/22 05:11:23;;;;;;;0.10;0.10;;;;;;;;;;5036355;28;20487;-72
2022/09/22 05:13:49;;;;;;;0.00;0.00;;;;;;;;;;5048118;28;21018;-72
2022/09/22 05:16:16;;;;;;;0.20;0.20;;;;;;;;;;5031570;28;20882;-72
2022/09/22 05:18:42;;;;;;;0.00;0.00;;;;;;;;;;5044502;28;20934;-72
2022/09/22 05:21:08;;;;;;;0.10;0.10;;;;;;;;;;5044053;28;20933;-72
2022/09/22 05:23:35;;;;;;;0.00;0.00;;;;;;;;;;5063703;28;20431;-77
2022/09/22 05:26:01;;;;;;;0.00;0.00;;;;;;;;;;5046663;28;20453;-75
2022/09/22 05:28:28;;;;;;;0.00;0.00;;;;;;;;;;5048845;28;20427;-75
2022/09/22 05:30:54;;;;;;;0.00;0.00;;;;;;;;;;5040170;28;20429;-74
2022/09/22 05:33:20;;;;;;;0.10;0.10;;;;;;;;;;5061121;28;20504;-75
2022/09/22 05:35:46;;;;;;;0.00;0.00;;;;;;;;;;5051570;28;20479;-76
2022/09/22 05:38:12;;;;;;;0.10;0.10;;;;;;;;;;5052125;28;20421;-75
2022/09/22 05:40:38;;;;;;;0.00;0.00;;;;;;;;;;5052893;28;20432;-75
2022/09/22 05:43:04;;;;;;;0.00;0.00;;;;;;;;;;5044410;28;20468;-75
2022/09/22 05:45:30;;;;;;;0.10;0.10;;;;;;;;;;5022708;28;20913;-75
2022/09/22 05:47:56;;;;;;;0.10;0.10;;;;;;;;;;5040247;28;20421;-74
2022/09/22 05:50:23;;;;;;;0.00;0.00;;;;;;;;;;5025228;28;20924;-75
2022/09/22 05:52:49;;;;;;;0.20;0.20;;;;;;;;;;5047917;28;20895;-75
2022/09/22 05:55:15;;;;;;;0.00;0.00;;;;;;;;;;5026836;28;20479;-75
2022/09/22 05:57:42;;;;;;;0.10;0.10;;;;;;;;;;5020417;28;20432;-72
2022/09/22 06:00:09;;;;;;;0.00;0.00;;;;;;;;;;5040152;28;20433;-73
2022/09/22 06:02:35;;;;;;;0.10;0.10;;;;;;;;;;5049291;28;20424;-72
2022/09/22 06:05:01;;;;;;;0.00;0.00;;;;;;;;;;5051001;28;20453;-72
2022/09/22 06:07:27;;;;;;;0.30;0.30;;;;;;;;;;5033712;28;20448;-72
2022/09/22 06:09:54;;;;;;;0.40;0.40;;;;;;;;;;5065377;28;20439;-72
2022/09/22 06:12:20;;;;;;;0.10;0.10;;;;;;;;;;5047123;28;20429;-72
2022/09/22 06:14:46;;;;;;;0.10;0.10;;;;;;;;;;5031302;28;20415;-72
2022/09/22 06:17:12;;;;;;;0.00;0.00;;;;;;;;;;5016598;28;20929;-73
2022/09/22 06:19:39;;;;;;;0.00;0.00;;;;;;;;;;5048039;28;20427;-73
2022/09/22 06:22:05;;;;;;;0.10;0.10;;;;;;;;;;5016735;28;20423;-73
2022/09/22 06:24:31;;;;;;;0.10;0.10;;;;;;;;;;5046865;28;20449;-72
2022/09/22 06:26:57;;;;;;;0.20;0.20;;;;;;;;;;5046266;28;20562;-72
2022/09/22 06:29:23;;;;;;;0.20;0.20;;;;;;;;;;5031012;28;20425;-72
2022/09/22 06:31:49;;;;;;;0.10;0.10;;;;;;;;;;5045401;28;20473;-72
2022/09/22 06:34:16;;;;;;;0.10;0.10;;;;;;;;;;5050955;28;20771;-72
2022/09/22 06:36:44;;;;;;;0.00;0.00;;;;;;;;;;5028216;28;21011;-72
2022/09/22 06:39:10;;;;;;;0.10;0.10;;;;;;;;;;5047042;28;20576;-73
2022/09/22 06:41:36;;;;;;;0.10;0.10;;;;;;;;;;5041762;28;20833;-72
2022/09/22 06:44:04;;;;;;;0.10;0.10;;;;;;;;;;5049727;28;20810;-72
2022/09/22 06:46:31;;;;;;;0.10;0.10;;;;;;;;;;5045763;28;20474;-72
2022/09/22 06:48:58;;;;;;;0.20;0.20;;;;;;;;;;5064155;28;20431;-72
2022/09/22 06:51:28;;;;;;;0.10;0.10;;;;;;;;;;5048365;28;20437;-72
2022/09/22 06:53:55;;;;;;;0.00;0.00;;;;;;;;;;5065079;28;20536;-73
2022/09/22 06:56:22;;;;;;;0.10;0.10;;;;;;;;;;5050942;28;20487;-73
2022/09/22 06:58:48;;;;;;;0.10;0.10;;;;;;;;;;5034337;28;20425;-72
2022/09/22 07:01:18;;;;;;;0.03;0.03;;;;;;;;;;5044547;28;20429;-72
2022/09/22 07:03:45;;;;;;;0.10;0.10;;;;;;;;;;5042186;28;20425;-72
2022/09/22 07:06:15;;;;;;;0.10;0.10;;;;;;;;;;5034887;28;20937;-73
2022/09/22 07:08:42;;;;;;;0.08;0.08;;;;;;;;;;5042297;28;20452;-74
2022/09/22 07:11:09;;;;;;;0.10;0.10;;;;;;;;;;5051744;28;20423;-72
2022/09/22 07:13:39;;;;;;;0.10;0.10;;;;;;;;;;5046714;28;20419;-72
2022/09/22 07:16:07;;;;;;;0.03;0.03;;;;;;;;;;5035275;28;20821;-72
2022/09/22 07:18:33;;;;;;;0.10;0.10;;;;;;;;;;5065917;28;20838;-73
2022/09/22 07:21:03;;;;;;;0.10;0.10;;;;;;;;;;5032402;28;20906;-72
2022/09/22 07:23:29;;;;;;;0.10;0.10;;;;;;;;;;5043870;28;20460;-73
2022/09/22 07:25:59;;;;;;;0.20;0.20;;;;;;;;;;5043209;28;20427;-73
2022/09/22 07:28:27;;;;;;;0.10;0.10;;;;;;;;;;5043087;28;20417;-73
2022/09/22 07:30:56;;;;;;;0.40;0.40;;;;;;;;;;5045503;28;20903;-73
2022/09/22 07:33:22;;;;;;;0.50;0.40;;;;;;;;;;5042943;28;20552;-74
2022/09/22 07:35:58;;;;;;;0.00;0.00;;;;;;;;;;5046856;28;20429;-73
2022/09/22 07:38:28;;;;;;;0.40;0.40;;;;;;;;;;5063917;28;20504;-73
2022/09/22 07:40:54;;;;;;;0.15;0.15;;;;;;;;;;5033226;28;20427;-75
2022/09/22 07:43:20;;;;;;;0.10;0.10;;;;;;;;;;5045576;28;20427;-75
2022/09/22 07:45:56;;;;;;;0.10;0.10;;;;;;;;;;5019257;28;20933;-73
2022/09/22 07:48:36;;;;;;;0.00;0.00;;;;;;;;;;5048370;28;20436;-74
2022/09/22 07:51:03;;;;;;;0.10;0.10;;;;;;;;;;5033956;28;20493;-74
2022/09/22 07:53:30;;;;;;;0.10;0.10;;;;;;;;;;5048814;28;20460;-74
2022/09/22 07:56:01;;;;;;;0.10;0.10;;;;;;;;;;5038011;28;20432;-74
2022/09/22 07:58:27;;;;;;;0.10;0.10;;;;;;;;;;5049427;28;20830;-74
2022/09/22 08:00:53;;;;;;;0.10;0.10;;;;;;;;;;5048094;28;20429;-74
2022/09/22 08:03:19;;;;;;;0.30;0.30;;;;;;;;;;5033769;28;20433;-75
2022/09/22 08:05:46;;;;;;;0.10;0.10;;;;;;;;;;5032393;28;20518;-74
2022/09/22 08:08:12;;;;;;;0.00;0.00;;;;;;;;;;5032604;28;20836;-74
2022/09/22 08:10:38;;;;;;;0.10;0.10;;;;;;;;;;5014839;28;20948;-74
2022/09/22 08:13:04;;;;;;;1.40;0.60;;;;;;;;;;5014376;28;20439;-74
2022/09/22 08:15:30;;;;;;;0.00;0.00;;;;;;;;;;5015319;28;20780;-74
2022/09/22 08:17:57;;;;;;;0.10;0.10;;;;;;;;;;5031585;28;20446;-74
2022/09/22 08:20:27;;;;;;;0.10;0.10;;;;;;;;;;5032308;28;20419;-74
2022/09/22 08:22:56;;;;;;;0.10;0.10;;;;;;;;;;5031633;28;20453;-75
2022/09/22 08:25:24;;;;;;;0.20;0.20;;;;;;;;;;5039296;28;20435;-74
2022/09/22 08:27:50;;;;;;;0.13;0.13;;;;;;;;;;5031922;28;20429;-75
2022/09/22 08:30:18;;;;;;;0.10;0.10;;;;;;;;;;5031165;28;20415;-74
2022/09/22 08:32:45;;;;;;;0.10;0.10;;;;;;;;;;5031811;28;20423;-75
2022/09/22 08:35:11;;;;;;;0.10;0.10;;;;;;;;;;5031729;28;20454;-74
2022/09/22 08:37:40;;;;;;;0.10;0.10;;;;;;;;;;5037955;28;20419;-74
2022/09/22 08:40:08;;;;;;;0.10;0.10;;;;;;;;;;5030493;28;20437;-76
2022/09/22 08:42:35;;;;;;;0.10;0.10;;;;;;;;;;5030628;28;20755;-74
2022/09/22 08:45:06;;;;;;;0.10;0.10;;;;;;;;;;5031257;28;20426;-74
2022/09/22 08:53:16;;;;;;;0.10;0.10;;;;;;;;;;5050763;28;20459;-74
2022/09/22 08:55:43;;;;;;;0.10;0.10;;;;;;;;;;5033801;28;20446;-74
2022/09/22 08:58:28;;;;;;;0.10;0.10;;;;;;;;;;5046322;28;20430;-74
2022/09/22 09:01:20;;;;;;;0.10;0.10;;;;;;;;;;5030788;28;20418;-75
2022/09/22 09:03:53;;;;;;;0.10;0.10;;;;;;;;;;5010727;28;20921;-74
2022/09/22 09:06:25;;;;;;;0.30;0.30;;;;;;;;;;5031554;28;20917;-74
2022/09/22 09:08:59;;;;;;;0.10;0.10;;;;;;;;;;5031660;28;20422;-76
2022/09/22 09:11:28;;;;;;;0.10;0.10;;;;;;;;;;5031122;28;20508;-75
2022/09/22 09:13:54;;;;;;;0.10;0.10;;;;;;;;;;5031168;28;20423;-75
2022/09/22 09:16:32;;;;;;;0.40;0.40;;;;;;;;;;5026155;28;20435;-73
2022/09/22 09:19:05;;;;;;;0.10;0.10;;;;;;;;;;5031177;28;20429;-74
2022/09/22 09:21:33;;;;;;;0.10;0.10;;;;;;;;;;5030950;28;20427;-73
2022/09/22 09:24:03;;;;;;;0.10;0.10;;;;;;;;;;5031008;28;20431;-74
2022/09/22 09:26:30;;;;;;;0.50;0.50;;;;;;;;;;5031371;28;20438;-74
2022/09/22 09:29:00;;;;;;;0.30;0.30;;;;;;;;;;5029389;28;20418;-73
2022/09/22 09:31:30;;;;;;;0.10;0.10;;;;;;;;;;5013933;28;20948;-73
2022/09/22 09:34:02;;;;;;;0.10;0.10;;;;;;;;;;5030407;28;20462;-73
2022/09/22 09:36:33;;;;;;;0.20;0.20;;;;;;;;;;5040646;28;20421;-73
2022/09/22 09:39:03;;;;;;;0.10;0.10;;;;;;;;;;5047573;28;20427;-73
2022/09/22 09:41:31;;;;;;;0.15;0.15;;;;;;;;;;5044817;28;20430;-73
2022/09/22 09:43:59;;;;;;;0.10;0.10;;;;;;;;;;5039513;28;20480;-71
2022/09/22 09:46:29;;;;;;;0.10;0.10;;;;;;;;;;5034074;28;20463;-71
2022/09/22 09:49:04;;;;;;;1.40;0.50;;;;;;;;;;5030589;28;20434;-71
2022/09/22 09:51:33;;;;;;;0.10;0.10;;;;;;;;;;5032153;28;20782;-71
2022/09/22 09:54:04;;;;;;;0.10;0.10;;;;;;;;;;5032495;28;20518;-71
2022/09/22 09:56:30;;;;;;;0.10;0.10;;;;;;;;;;5028294;28;20895;-71
2022/09/22 10:01:44;;;;;;;0.13;0.13;;;;;;;;;;5034895;28;20489;-71
2022/09/22 10:04:21;;;;;;;0.10;0.10;;;;;;;;;;5033806;28;20406;-71
2022/09/22 10:06:48;;;;;;;0.40;0.40;;;;;;;;;;5034660;28;20466;-71
2022/09/22 10:09:28;;;;;;;0.30;0.30;;;;;;;;;;5048423;28;20558;-71
2022/09/22 10:11:58;;;;;;;0.10;0.10;;;;;;;;;;5035514;28;20509;-70
2022/09/22 10:14:26;;;;;;;0.10;0.10;;;;;;;;;;5034375;28;20634;-70
2022/09/22 10:16:52;;;;;;;0.10;0.10;;;;;;;;;;5034899;28;20422;-70
2022/09/22 10:19:29;;;;;;;0.10;0.10;;;;;;;;;;5034283;28;20756;-70
2022/09/22 10:22:30;;;;;;;0.20;0.10;;;;;;;;;;5034439;28;20423;-70
2022/09/22 10:24:58;;;;;;;0.40;0.30;;;;;;;;;;4990210;28;20438;-70
2022/09/22 10:27:26;;;;;;;0.10;0.10;;;;;;;;;;5041142;28;20462;-71
2022/09/22 10:30:10;;;;;;;0.10;0.10;;;;;;;;;;5046343;28;20422;-71
2022/09/22 10:32:39;;;;;;;0.10;0.10;;;;;;;;;;5042068;28;20429;-70
2022/09/22 10:35:24;;;;;;;0.10;0.10;;;;;;;;;;5017140;28;20785;-72
2022/09/22 10:37:51;;;;;;;0.20;0.20;;;;;;;;;;5036838;28;20445;-72
2022/09/22 10:40:19;;;;;;;0.10;0.10;;;;;;;;;;5029358;28;20788;-71
2022/09/22 10:42:47;;;;;;;0.10;0.10;;;;;;;;;;5064079;28;20434;-75
2022/09/22 10:45:14;;;;;;;0.10;0.10;;;;;;;;;;5059216;28;20447;-75
2022/09/22 10:47:54;;;;;;;0.10;0.10;;;;;;;;;;5049665;28;20409;-74
2022/09/22 10:50:20;;;;;;;0.10;0.10;;;;;;;;;;5012384;28;21491;-75
2022/09/22 10:52:46;;;;;;;0.30;0.30;;;;;;;;;;5063790;28;20479;-77
2022/09/22 10:55:12;;;;;;;0.10;0.10;;;;;;;;;;5062196;28;20993;-75
2022/09/22 10:57:41;;;;;;;0.10;0.10;;;;;;;;;;5057607;28;20435;-75
2022/09/22 11:00:13;;;;;;;0.10;0.10;;;;;;;;;;5046880;28;20500;-75
2022/09/22 11:02:48;;;;;;;0.32;0.32;;;;;;;;;;5044213;28;20431;-75
2022/09/22 11:12:15;;;;;;;0.10;0.10;;;;;;;;;;5055491;28;20450;-75
2022/09/22 11:13:49;;;;;;;0.10;0.10;;;;;;;;;;5017484;28;20821;-76
2022/09/22 11:16:33;;;;;;;0.10;0.10;;;;;;;;;;5047080;28;20441;-71
2022/09/22 11:19:09;;;;;;;0.10;0.10;;;;;;;;;;5028824;28;20516;-75
2022/09/22 11:21:42;;;;;;;0.10;0.10;;;;;;;;;;5042873;28;20483;-76
2022/09/22 11:24:16;;;;;;;0.10;0.10;;;;;;;;;;5048107;28;20427;-77
2022/09/22 11:26:47;;;;;;;0.10;0.10;;;;;;;;;;5029151;28;20471;-76
2022/09/22 11:29:28;;;;;;;0.10;0.10;;;;;;;;;;5060012;28;20485;-76
2022/09/22 11:32:00;;;;;;;0.10;0.10;;;;;;;;;;5049075;28;20425;-76
2022/09/22 11:34:29;;;;;;;0.20;0.20;;;;;;;;;;5041086;28;20470;-76
2022/09/22 11:36:55;;;;;;;0.10;0.10;;;;;;;;;;5048597;28;20463;-76
2022/09/22 11:39:41;;;;;;;0.10;0.10;;;;;;;;;;5044303;28;20515;-75
2022/09/22 11:42:15;;;;;;;0.10;0.10;;;;;;;;;;5027264;28;20409;-76
2022/09/22 11:45:01;;;;;;;0.10;0.10;;;;;;;;;;5038768;28;20406;-75
2022/09/22 11:47:30;;;;;;;0.15;0.15;;;;;;;;;;5046103;28;20772;-75
2022/09/22 11:49:59;;;;;;;0.40;0.20;;;;;;;;;;5056891;28;20436;-75
2022/09/22 11:52:44;;;;;;;2.35;0.40;;;;;;;;;;5065183;28;20434;-76
2022/09/22 11:55:28;;;;;;;0.10;0.10;;;;;;;;;;5050514;28;20421;-75
2022/09/22 11:57:57;;;;;;;0.10;0.10;;;;;;;;;;5054659;28;20427;-75
2022/09/22 12:00:23;;;;;;;0.10;0.10;;;;;;;;;;5053722;28;20490;-76
2022/09/22 12:02:59;;;;;;;0.10;0.10;;;;;;;;;;5061795;28;20431;-77
2022/09/22 12:05:30;;;;;;;0.10;0.10;;;;;;;;;;5061157;28;20439;-76
2022/09/22 12:08:01;;;;;;;0.10;0.10;;;;;;;;;;5045648;28;20452;-76
2022/09/22 12:10:30;;;;;;;0.10;0.10;;;;;;;;;;5039238;28;20522;-76
2022/09/22 12:12:56;;;;;;;0.10;0.10;;;;;;;;;;5024548;28;20433;-76
2022/09/22 12:15:28;;;;;;;0.10;0.10;;;;;;;;;;5043429;28;20984;-76
2022/09/22 12:18:09;;;;;;;0.10;0.10;;;;;;;;;;5050005;28;20405;-76
2022/09/22 12:20:35;;;;;;;0.10;0.10;;;;;;;;;;5062817;28;20466;-75
2022/09/22 12:23:20;;;;;;;0.10;0.10;;;;;;;;;;5027829;28;20445;-76
2022/09/22 12:25:53;;;;;;;0.10;0.10;;;;;;;;;;5057521;28;20474;-77
2022/09/22 12:28:23;;;;;;;0.10;0.10;;;;;;;;;;5030769;28;20477;-76
2022/09/22 12:31:11;;;;;;;0.15;0.15;;;;;;;;;;5063852;28;20500;-76
2022/09/22 12:33:39;;;;;;;0.20;0.20;;;;;;;;;;5028896;28;20995;-74
2022/09/22 12:36:05;;;;;;;0.20;0.20;;;;;;;;;;5043106;28;20447;-73
2022/09/22 12:38:32;;;;;;;0.10;0.10;;;;;;;;;;5034671;28;20488;-72
2022/09/22 12:41:01;;;;;;;0.10;0.10;;;;;;;;;;5043982;28;20434;-72
2022/09/22 12:43:28;;;;;;;0.30;0.30;;;;;;;;;;5047035;28;20415;-72
2022/09/22 12:45:55;;;;;;;0.70;0.70;;;;;;;;;;5045282;28;20425;-72
2022/09/22 12:48:24;;;;;;;0.10;0.10;;;;;;;;;;5053522;28;20416;-72
2022/09/22 12:50:51;;;;;;;0.10;0.10;;;;;;;;;;5031970;28;20466;-72
2022/09/22 12:53:20;;;;;;;0.10;0.10;;;;;;;;;;5031277;28;20430;-72
2022/09/22 12:55:47;;;;;;;0.10;0.10;;;;;;;;;;5039895;28;20841;-72
2022/09/22 12:58:22;;;;;;;0.10;0.10;;;;;;;;;;5035907;28;20455;-72
2022/09/22 13:00:55;;;;;;;0.10;0.10;;;;;;;;;;5037680;28;20421;-71
2022/09/22 13:03:24;;;;;;;0.10;0.10;;;;;;;;;;5029370;28;20897;-72
2022/09/22 13:05:52;;;;;;;0.10;0.10;;;;;;;;;;5031418;28;20517;-72
2022/09/22 13:08:22;;;;;;;0.10;0.10;;;;;;;;;;5046502;28;20431;-72
2022/09/22 13:10:55;;;;;;;0.20;0.20;;;;;;;;;;5031567;28;20422;-72
2022/09/22 13:13:23;;;;;;;0.10;0.10;;;;;;;;;;5031078;28;20505;-72
2022/09/22 13:15:49;;;;;;;0.10;0.10;;;;;;;;;;5034101;28;20450;-71
2022/09/22 13:18:28;;;;;;;0.70;0.70;;;;;;;;;;5030534;28;20480;-72
2022/09/22 13:20:54;;;;;;;0.10;0.10;;;;;;;;;;5044071;28;20473;-72
2022/09/22 13:23:20;;;;;;;0.10;0.10;;;;;;;;;;5026913;28;20839;-72
2022/09/22 13:25:47;;;;;;;0.10;0.10;;;;;;;;;;5063609;28;20457;-72
2022/09/22 13:28:13;;;;;;;0.10;0.10;;;;;;;;;;5044735;28;20938;-72
2022/09/22 13:30:40;;;;;;;0.10;0.10;;;;;;;;;;5036512;28;20465;-73
2022/09/22 13:33:20;;;;;;;0.10;0.10;;;;;;;;;;5049643;28;20423;-71
2022/09/22 13:35:46;;;;;;;0.10;0.10;;;;;;;;;;5021019;28;20433;-72
2022/09/22 13:38:14;;;;;;;0.15;0.15;;;;;;;;;;5045225;28;20455;-72
2022/09/22 13:40:44;;;;;;;0.10;0.10;;;;;;;;;;5035398;28;20442;-73
2022/09/22 13:43:11;;;;;;;0.10;0.10;;;;;;;;;;5035004;28;20419;-71
2022/09/22 13:45:38;;;;;;;0.10;0.10;;;;;;;;;;5038530;28;20425;-71
2022/09/22 13:48:09;;;;;;;0.10;0.10;;;;;;;;;;5043632;28;20428;-71
2022/09/22 13:50:40;;;;;;;0.10;0.10;;;;;;;;;;5040514;28;20422;-72
2022/09/22 13:53:06;;;;;;;0.20;0.10;;;;;;;;;;5051144;28;20777;-72
2022/09/22 13:55:34;;;;;;;0.10;0.10;;;;;;;;;;5051206;28;20424;-72
2022/09/22 13:58:01;;;;;;;0.30;0.30;;;;;;;;;;5050272;28;20454;-71
2022/09/22 14:00:42;;;;;;;0.10;0.10;;;;;;;;;;5034764;28;20427;-71
2022/09/22 14:03:17;;;;;;;0.10;0.10;;;;;;;;;;5034398;28;20427;-71
2022/09/22 14:05:43;;;;;;;0.10;0.10;;;;;;;;;;5036809;28;20484;-71
2022/09/22 14:08:12;;;;;;;0.10;0.10;;;;;;;;;;5053236;28;20508;-72
2022/09/22 14:10:40;;;;;;;0.10;0.10;;;;;;;;;;5051010;28;20895;-72
2022/09/22 14:13:26;;;;;;;0.20;0.20;;;;;;;;;;5034315;28;20403;-74
2022/09/22 14:15:52;;;;;;;0.10;0.10;;;;;;;;;;5051687;28;20826;-75
2022/09/22 14:18:25;;;;;;;0.20;0.20;;;;;;;;;;5027225;28;20431;-78
2022/09/22 14:20:54;;;;;;;0.10;0.10;;;;;;;;;;5041720;28;20419;-75
2022/09/22 14:23:30;;;;;;;0.10;0.10;;;;;;;;;;5023550;28;20436;-79
2022/09/22 14:25:57;;;;;;;0.10;0.10;;;;;;;;;;5018763;28;20434;-77
2022/09/22 14:28:28;;;;;;;0.10;0.10;;;;;;;;;;5033453;28;20457;-78
2022/09/22 14:30:54;;;;;;;0.15;0.15;;;;;;;;;;5032875;28;20419;-79
2022/09/22 14:33:24;;;;;;;0.10;0.10;;;;;;;;;;5031122;28;20438;-80
2022/09/22 14:35:58;;;;;;;0.20;0.20;;;;;;;;;;5039446;28;20468;-80
2022/09/22 14:38:24;;;;;;;0.10;0.10;;;;;;;;;;5042520;28;21036;-78
2022/09/22 14:40:52;;;;;;;0.10;0.10;;;;;;;;;;5023677;28;20418;-77
2022/09/22 14:43:23;;;;;;;0.10;0.10;;;;;;;;;;5035513;28;20439;-77
2022/09/22 14:46:02;;;;;;;0.10;0.10;;;;;;;;;;5032890;28;20575;-82
2022/09/22 14:48:28;;;;;;;0.10;0.10;;;;;;;;;;5044959;28;20530;-81
2022/09/22 14:50:56;;;;;;;0.40;0.20;;;;;;;;;;5047020;28;20454;-81
2022/09/22 14:53:28;;;;;;;0.10;0.10;;;;;;;;;;5064782;28;20508;-80
2022/09/22 14:55:59;;;;;;;0.10;0.10;;;;;;;;;;5050914;28;20983;-80
2022/09/22 14:58:30;;;;;;;0.10;0.10;;;;;;;;;;5048565;28;20409;-80
2022/09/22 15:03:52;;;;;;;0.10;0.10;;;;;;;;;;5037688;28;20439;-79
2022/09/22 15:06:18;;;;;;;0.10;0.10;;;;;;;;;;5028003;28;20434;-78
2022/09/22 15:08:48;;;;;;;0.10;0.10;;;;;;;;;;5056743;28;20425;-78
2022/09/22 15:11:15;;;;;;;0.10;0.10;;;;;;;;;;5031005;28;20429;-78
2022/09/22 15:13:43;;;;;;;0.30;0.30;;;;;;;;;;5063277;28;20432;-77